Terminal Aerodrome Forecast
Issued by NWS

Home | Current Version | Previous Version | Text Only | Print | Product List | Glossary On
Versions: 1 2 3 4 5 6 7 8 9 10 11 12 13
267
FTUS44 KEPZ 221120
TAFDMN
TAF
KDMN 221120Z 2212/2312 22006KT P6SM SCT100
     FM221700 23013G23KT P6SM SCT250
     FM222100 25020G31KT P6SM SCT250
     FM230200 27010KT P6SM SKC=

USA.gov is the U.S. government's official web portal to all federal, state and local government web resources and services.